createdAt,value
2022-08-14T00:01:46.246Z,99649.47
2022-08-14T00:04:35.762Z,99651.50
2022-08-14T00:07:10.664Z,99640.06
2022-08-14T00:09:55.179Z,99634.22
2022-08-14T00:12:33.237Z,99645.19
2022-08-14T00:15:02.841Z,99637.47
2022-08-14T00:17:29.616Z,99638.69
2022-08-14T00:19:57.986Z,99632.66
2022-08-14T00:22:56.054Z,99630.34
2022-08-14T00:25:12.944Z,99632.41
2022-08-14T00:27:42.039Z,99631.91
2022-08-14T00:30:11.192Z,99633.97
2022-08-14T00:32:53.474Z,99624.22
2022-08-14T00:36:37.544Z,99620.88
2022-08-14T00:38:25.053Z,99621.03
2022-08-14T00:40:53.838Z,99613.34
2022-08-14T00:43:21.589Z,99620.13
2022-08-14T00:45:51.621Z,99619.63
2022-08-14T00:48:34.580Z,99623.06
2022-08-14T00:51:08.952Z,99618.59
2022-08-14T00:53:36.674Z,99612.38
2022-08-14T00:56:07.069Z,99611.25
2022-08-14T00:58:36.678Z,99611.44
2022-08-14T01:01:14.600Z,99604.38
2022-08-14T01:03:44.720Z,99602.72
2022-08-14T01:10:05.246Z,99594.66
2022-08-14T01:12:32.738Z,99589.63
2022-08-14T01:15:02.183Z,99585.53
2022-08-14T01:17:50.643Z,99583.22
2022-08-14T01:20:39.751Z,99579.72
2022-08-14T01:23:16.362Z,99580.06
2022-08-14T01:25:46.678Z,99576.34
2022-08-14T01:28:47.120Z,99570.97
2022-08-14T01:31:01.734Z,99580.06
2022-08-14T01:33:30.178Z,99572.16
2022-08-14T01:36:04.512Z,99571.34
2022-08-14T01:38:37.198Z,99568.84
2022-08-14T01:41:16.297Z,99569.56
2022-08-14T01:43:56.683Z,99570.22
2022-08-14T01:46:25.152Z,99564.19
2022-08-14T01:49:00.321Z,99561.88
2022-08-14T01:51:28.582Z,99555.19
2022-08-14T01:53:59.142Z,99553.88
2022-08-14T01:56:39.735Z,99548.88
2022-08-14T01:59:19.648Z,99548.94
2022-08-14T02:01:58.533Z,99543.56
2022-08-14T02:04:54.822Z,99538.34
2022-08-14T02:07:17.542Z,99542.91
2022-08-14T02:10:01.715Z,99542.25
2022-08-14T02:12:29.262Z,99541.78
2022-08-14T02:15:00.727Z,99535.75
2022-08-14T02:17:29.268Z,99528.03
2022-08-14T02:19:57.648Z,99525.50
2022-08-14T02:22:28.711Z,99523.19
2022-08-14T02:24:59.488Z,99525.19
2022-08-14T02:28:25.725Z,99519.19
2022-08-14T02:30:13.813Z,99515.66
2022-08-14T02:32:40.388Z,99508.44
2022-08-14T02:35:13.766Z,99514.84
2022-08-14T02:37:47.141Z,99514.84
2022-08-14T02:40:15.650Z,99512.16
2022-08-14T02:42:54.677Z,99515.84
2022-08-14T02:45:38.864Z,99524.09
2022-08-14T02:49:05.235Z,99511.47
2022-08-14T02:51:01.293Z,99508.78
2022-08-14T02:53:31.695Z,99507.31
2022-08-14T02:56:02.583Z,99505.47
2022-08-14T02:58:32.940Z,99501.28
2022-08-14T03:01:01.503Z,99496.09
2022-08-14T03:03:28.682Z,99499.13
2022-08-14T03:05:59.033Z,99497.00
2022-08-14T03:08:31.794Z,99490.31
2022-08-14T03:10:59.462Z,99486.50
2022-08-14T03:13:26.013Z,99486.84
2022-08-14T03:15:58.005Z,99482.00
2022-08-14T03:18:31.629Z,99480.50
2022-08-14T03:21:05.429Z,99482.56
2022-08-14T03:23:38.673Z,99480.88
2022-08-14T03:26:08.676Z,99482.09
2022-08-14T03:28:42.700Z,99480.22
2022-08-14T03:31:13.415Z,99478.72
2022-08-14T03:33:41.130Z,99476.22
2022-08-14T03:37:51.145Z,99471.22
2022-08-14T03:39:12.266Z,99468.72
2022-08-14T03:41:43.109Z,99468.22
2022-08-14T03:45:28.012Z,99468.59
2022-08-14T03:46:56.492Z,99466.25
2022-08-14T03:49:28.789Z,99462.09
2022-08-14T03:52:01.106Z,99461.25
2022-08-14T03:54:29.007Z,99452.50
2022-08-14T03:57:02.520Z,99458.88
2022-08-14T03:59:29.860Z,99451.03
2022-08-14T04:02:01.896Z,99450.16
2022-08-14T04:04:33.482Z,99455.72
2022-08-14T04:07:00.849Z,99449.69
2022-08-14T04:09:27.880Z,99448.22
2022-08-14T04:11:56.061Z,99440.50
2022-08-14T04:14:23.580Z,99447.88
2022-08-14T04:16:50.826Z,99448.25
2022-08-14T04:19:20.585Z,99450.28
2022-08-14T04:22:02.400Z,99440.72
2022-08-14T04:24:38.492Z,99443.59
2022-08-14T04:27:10.264Z,99437.91
2022-08-14T04:29:38.793Z,99445.97
2022-08-14T04:33:02.567Z,99438.94
2022-08-14T04:34:56.200Z,99435.41
2022-08-14T04:37:42.950Z,99441.78
2022-08-14T04:40:29.135Z,99433.91
2022-08-14T04:43:17.335Z,99430.59
2022-08-14T04:45:44.797Z,99428.88
2022-08-14T04:48:13.722Z,99433.44
2022-08-14T04:51:01.506Z,99437.78
2022-08-14T04:53:34.801Z,99439.47
2022-08-14T04:56:02.738Z,99440.94
2022-08-14T04:58:33.933Z,99433.06
2022-08-14T05:01:04.144Z,99434.75
2022-08-14T05:03:33.499Z,99446.31
2022-08-14T05:06:03.022Z,99444.66
2022-08-14T05:08:32.472Z,99443.63
2022-08-14T05:11:20.699Z,99443.00
2022-08-14T05:16:39.746Z,99443.63
2022-08-14T05:19:18.165Z,99447.34
2022-08-14T05:21:59.303Z,99450.69
2022-08-14T05:24:27.519Z,99444.13
2022-08-14T05:26:54.251Z,99447.28
2022-08-14T05:29:22.068Z,99447.59
2022-08-14T05:31:48.971Z,99440.03
2022-08-14T05:34:28.820Z,99444.84
2022-08-14T05:37:02.369Z,99443.47
2022-08-14T05:39:31.408Z,99441.94
2022-08-14T05:41:58.998Z,99436.88
2022-08-14T05:44:30.127Z,99437.19
2022-08-14T05:47:02.139Z,99431.94
2022-08-14T05:49:36.635Z,99436.41
2022-08-14T05:52:09.826Z,99436.53
2022-08-14T05:54:36.731Z,99424.03
2022-08-14T05:57:04.730Z,99424.97
2022-08-14T05:59:38.647Z,99427.75
2022-08-14T06:02:07.610Z,99426.84
2022-08-14T06:04:36.777Z,99428.81
2022-08-14T06:07:03.524Z,99428.06
2022-08-14T06:09:36.047Z,99430.88
2022-08-14T06:12:08.803Z,99430.16
2022-08-14T06:14:36.845Z,99431.91
2022-08-14T06:17:06.185Z,99430.34
2022-08-14T06:19:32.782Z,99426.06
2022-08-14T06:24:44.069Z,99420.03
2022-08-14T06:27:10.893Z,99409.53
2022-08-14T06:29:38.595Z,99407.94
2022-08-14T06:32:37.808Z,99409.06
2022-08-14T06:35:04.169Z,99403.75
2022-08-14T06:37:43.292Z,99413.75
2022-08-14T06:40:25.448Z,99412.19
2022-08-14T06:42:54.709Z,99422.22
2022-08-14T06:45:21.516Z,99418.94
2022-08-14T06:47:53.805Z,99413.00
2022-08-14T06:50:27.970Z,99416.13
2022-08-14T06:52:56.171Z,99402.09
2022-08-14T06:55:26.486Z,99405.06
2022-08-14T06:57:55.140Z,99413.38
2022-08-14T07:00:27.011Z,99414.47
2022-08-14T07:03:13.104Z,99407.50
2022-08-14T07:05:55.382Z,99401.31
2022-08-14T07:08:29.427Z,99405.91
2022-08-14T07:11:00.660Z,99408.69
2022-08-14T07:13:28.445Z,99409.75
2022-08-14T07:15:58.446Z,99401.13
2022-08-14T07:18:36.041Z,99403.63
2022-08-14T07:21:05.359Z,99399.75
2022-08-14T07:23:40.210Z,99398.16
2022-08-14T07:26:11.323Z,99401.72
2022-08-14T07:28:43.015Z,99399.06
2022-08-14T07:31:11.770Z,99401.78
2022-08-14T07:33:50.759Z,99392.09
2022-08-14T07:36:27.840Z,99397.78
2022-08-14T07:39:00.734Z,99387.84
2022-08-14T07:41:33.746Z,99388.53
2022-08-14T07:44:28.850Z,99393.13
2022-08-14T07:46:51.270Z,99392.13
2022-08-14T07:49:19.093Z,99389.25
2022-08-14T07:51:49.249Z,99391.16
2022-08-14T07:54:23.224Z,99395.72
2022-08-14T07:57:00.074Z,99393.88
2022-08-14T07:59:42.439Z,99396.41
2022-08-14T08:02:19.052Z,99397.25
2022-08-14T08:04:53.030Z,99392.09
2022-08-14T08:07:22.309Z,99395.63
2022-08-14T08:09:53.604Z,99390.88
2022-08-14T08:12:26.247Z,99387.34
2022-08-14T08:15:05.647Z,99386.34
2022-08-14T08:17:53.233Z,99383.66
2022-08-14T08:20:27.083Z,99382.41
2022-08-14T08:22:56.988Z,99381.13
2022-08-14T08:25:29.879Z,99375.72
2022-08-14T08:28:08.448Z,99372.22
2022-08-14T08:30:49.291Z,99365.56
2022-08-14T08:33:17.536Z,99367.00
2022-08-14T08:35:46.326Z,99365.94
2022-08-14T08:39:17.840Z,99360.31
2022-08-14T08:41:10.936Z,99361.09
2022-08-14T08:43:39.043Z,99353.78
2022-08-14T08:46:21.176Z,99351.91
2022-08-14T08:51:34.487Z,99342.66
2022-08-14T08:54:15.329Z,99335.13
2022-08-14T08:56:48.511Z,99332.53
2022-08-14T08:59:33.968Z,99332.50
2022-08-14T09:02:03.966Z,99325.34
2022-08-14T09:04:45.450Z,99330.53
2022-08-14T09:07:26.727Z,99323.56
2022-08-14T09:09:59.011Z,99318.69
2022-08-14T09:12:32.213Z,99318.41
2022-08-14T09:15:11.824Z,99325.66
2022-08-14T09:17:41.304Z,99322.84
2022-08-14T09:20:11.298Z,99319.22
2022-08-14T09:22:42.712Z,99313.16
2022-08-14T09:25:59.071Z,99316.88
2022-08-14T09:28:11.014Z,99319.03
2022-08-14T09:30:44.683Z,99311.44
2022-08-14T09:33:56.535Z,99312.66
2022-08-14T09:36:54.306Z,99311.28
2022-08-14T09:39:40.083Z,99315.56
2022-08-14T09:42:33.868Z,99311.75
2022-08-14T09:45:10.761Z,99308.91
2022-08-14T09:47:44.769Z,99305.47
2022-08-14T09:50:26.040Z,99303.28
2022-08-14T09:53:17.730Z,99308.97
2022-08-14T09:55:45.841Z,99293.34
2022-08-14T09:58:22.645Z,99297.59
2022-08-14T10:01:01.698Z,99292.94
2022-08-14T10:03:36.446Z,99294.81
2022-08-14T10:06:19.271Z,99287.63
2022-08-14T10:08:51.438Z,99276.19
2022-08-14T10:11:24.037Z,99281.50
2022-08-14T10:13:55.776Z,99272.66
2022-08-14T10:16:33.057Z,99271.72
2022-08-14T10:19:10.051Z,99272.91
2022-08-14T10:23:12.074Z,99271.50
2022-08-14T10:24:36.680Z,99279.66
2022-08-14T10:27:05.013Z,99273.59
2022-08-14T10:29:37.848Z,99276.81
2022-08-14T10:32:17.678Z,99265.56
2022-08-14T10:34:46.358Z,99262.19
2022-08-14T10:37:19.352Z,99253.69
2022-08-14T10:40:05.417Z,99255.69
2022-08-14T10:42:43.814Z,99260.53
2022-08-14T10:45:33.970Z,99249.47
2022-08-14T10:48:09.612Z,99243.75
2022-08-14T10:50:51.690Z,99246.41
2022-08-14T10:53:35.651Z,99250.84
2022-08-14T10:56:21.520Z,99227.88
2022-08-14T10:59:08.834Z,99220.13
2022-08-14T11:01:41.863Z,99223.16
2022-08-14T11:04:25.105Z,99218.38
2022-08-14T11:06:56.068Z,99215.16
2022-08-14T11:09:22.910Z,99213.31
2022-08-14T11:11:56.574Z,99211.38
2022-08-14T11:14:51.147Z,99221.78
2022-08-14T11:17:32.225Z,99214.94
2022-08-14T11:20:14.168Z,99210.91
2022-08-14T11:22:56.626Z,99200.78
2022-08-14T11:25:43.329Z,99193.63
2022-08-14T11:28:14.825Z,99205.97
2022-08-14T11:30:54.317Z,99199.63
2022-08-14T11:33:29.184Z,99197.16
2022-08-14T11:35:59.555Z,99185.06
2022-08-14T11:38:29.070Z,99188.81
2022-08-14T11:40:58.249Z,99170.31
2022-08-14T11:43:29.593Z,99166.25
2022-08-14T11:45:57.503Z,99167.16
2022-08-14T11:48:58.998Z,99166.13
2022-08-14T11:51:23.674Z,99165.91
2022-08-14T11:53:55.492Z,99157.41
2022-08-14T11:56:25.614Z,99163.75
2022-08-14T11:58:56.063Z,99167.53
2022-08-14T12:01:28.690Z,99158.91
2022-08-14T12:04:01.128Z,99157.44
2022-08-14T12:06:52.673Z,99149.13
2022-08-14T12:09:33.454Z,99149.34
2022-08-14T12:12:02.602Z,99146.91
2022-08-14T12:14:35.336Z,99132.81
2022-08-14T12:17:11.860Z,99137.69
2022-08-14T12:19:54.041Z,99140.66
2022-08-14T12:22:35.509Z,99137.00
2022-08-14T12:25:08.487Z,99129.06
2022-08-14T12:27:41.491Z,99122.97
2022-08-14T12:30:13.052Z,99115.09
2022-08-14T12:32:41.817Z,99106.34
2022-08-14T12:35:10.689Z,99109.56
2022-08-14T12:37:38.701Z,99099.16
2022-08-14T12:40:15.690Z,99105.38
2022-08-14T12:42:47.461Z,99094.94
2022-08-14T12:45:33.949Z,99101.53
2022-08-14T12:48:21.102Z,99104.81
2022-08-14T12:50:53.309Z,99097.00
2022-08-14T12:53:21.981Z,99094.09
2022-08-14T12:56:22.861Z,99088.81
2022-08-14T12:58:57.632Z,99081.06
2022-08-14T13:01:24.224Z,99091.91
2022-08-14T13:04:05.404Z,99093.09
2022-08-14T13:06:33.558Z,99080.78
2022-08-14T13:09:00.988Z,99068.69
2022-08-14T13:11:34.734Z,99075.97
2022-08-14T13:14:03.446Z,99084.28
2022-08-14T13:16:37.645Z,99078.41
2022-08-14T13:19:11.028Z,99059.09
2022-08-14T13:22:04.866Z,99062.69
2022-08-14T13:24:27.870Z,99061.78
2022-08-14T13:26:58.316Z,99047.78
2022-08-14T13:29:29.691Z,99049.06
2022-08-14T13:31:58.542Z,99039.19
2022-08-14T13:34:28.333Z,99050.97
2022-08-14T13:37:03.599Z,99045.66
2022-08-14T13:39:31.516Z,99038.47
2022-08-14T13:42:08.767Z,99035.47
2022-08-14T13:44:43.172Z,99037.25
2022-08-14T13:47:12.203Z,99030.19
2022-08-14T13:49:57.935Z,99021.22
2022-08-14T13:52:52.519Z,99020.66
2022-08-14T13:55:14.227Z,99016.16
2022-08-14T13:57:49.601Z,99008.63
2022-08-14T14:00:35.777Z,99010.88
2022-08-14T14:03:06.905Z,99003.50
2022-08-14T14:05:52.725Z,98993.00
2022-08-14T14:08:43.528Z,98987.06
2022-08-14T14:11:09.739Z,98979.69
2022-08-14T14:13:42.088Z,98975.69
2022-08-14T14:16:14.932Z,98965.31
2022-08-14T14:18:43.912Z,98962.09
2022-08-14T14:21:14.068Z,98970.50
2022-08-14T14:23:43.936Z,98964.31
2022-08-14T14:26:20.046Z,98950.66
2022-08-14T14:28:52.088Z,98952.38
2022-08-14T14:31:30.275Z,98941.91
2022-08-14T14:34:28.920Z,98933.31
2022-08-14T14:37:03.591Z,98933.06
2022-08-14T14:39:33.014Z,98932.59
2022-08-14T14:42:06.156Z,98924.78
2022-08-14T14:44:35.306Z,98929.03
2022-08-14T14:47:01.868Z,98925.44
2022-08-14T14:49:51.067Z,98912.56
2022-08-14T14:52:26.965Z,98912.38
2022-08-14T14:54:56.006Z,98909.41
2022-08-14T14:57:26.678Z,98910.78
2022-08-14T15:00:01.758Z,98903.75
2022-08-14T15:02:38.134Z,98911.78
2022-08-14T15:05:08.190Z,98907.50
2022-08-14T15:07:38.895Z,98902.41
2022-08-14T15:10:27.929Z,98904.69
2022-08-14T15:12:57.601Z,98903.28
2022-08-14T15:15:27.256Z,98906.28
2022-08-14T15:17:54.811Z,98896.34
2022-08-14T15:20:29.860Z,98898.97
2022-08-14T15:23:01.123Z,98898.31
2022-08-14T15:25:39.999Z,98902.97
2022-08-14T15:28:11.673Z,98898.13
2022-08-14T15:30:41.628Z,98894.69
2022-08-14T15:33:08.936Z,98903.31
2022-08-14T15:35:35.807Z,98899.06
2022-08-14T15:38:11.403Z,98902.53
2022-08-14T15:40:41.657Z,98891.38
2022-08-14T15:43:10.908Z,98896.38
2022-08-14T15:45:41.042Z,98895.31
2022-08-14T15:48:14.006Z,98896.44
2022-08-14T15:50:49.196Z,98893.53
2022-08-14T15:53:17.512Z,98893.16
2022-08-14T15:55:44.033Z,98895.56
2022-08-14T15:58:14.475Z,98890.66
2022-08-14T16:00:59.782Z,98898.03
2022-08-14T16:03:35.256Z,98887.25
2022-08-14T16:06:11.031Z,98889.31
2022-08-14T16:08:44.326Z,98885.41
2022-08-14T16:11:12.207Z,98886.16
2022-08-14T16:13:43.371Z,98883.06
2022-08-14T16:16:47.355Z,98875.56
2022-08-14T16:19:11.042Z,98876.63
2022-08-14T16:24:33.266Z,98880.50
2022-08-14T16:27:01.581Z,98880.59
2022-08-14T16:29:33.016Z,98879.81
2022-08-14T16:32:33.631Z,98868.31
2022-08-14T16:34:54.734Z,98870.00
2022-08-14T16:37:23.347Z,98871.94
2022-08-14T16:39:58.798Z,98861.31
2022-08-14T16:40:23.944Z,98878.72
2022-08-14T16:43:03.487Z,98862.72
2022-08-14T16:45:17.478Z,98862.47
2022-08-14T16:47:44.602Z,98862.50
2022-08-14T16:50:15.352Z,98853.22
2022-08-14T16:53:03.323Z,98855.44
2022-08-14T16:55:35.323Z,98851.63
2022-08-14T16:58:21.541Z,98853.25
2022-08-14T17:00:54.007Z,98848.63
2022-08-14T17:03:20.613Z,98841.81
2022-08-14T17:05:48.186Z,98841.00
2022-08-14T17:08:31.529Z,98848.06
2022-08-14T17:11:04.678Z,98841.25
2022-08-14T17:13:59.169Z,98838.22
2022-08-14T17:16:26.111Z,98829.19
2022-08-14T17:19:03.789Z,98833.50
2022-08-14T17:21:38.369Z,98825.25
2022-08-14T17:24:58.141Z,98824.72
2022-08-14T17:27:04.441Z,98821.94
2022-08-14T17:29:33.217Z,98821.66
2022-08-14T17:32:28.136Z,98818.91
2022-08-14T17:34:57.847Z,98815.88
2022-08-14T17:37:30.167Z,98810.09
2022-08-14T17:40:01.254Z,98815.22
2022-08-14T17:42:53.416Z,98811.59
2022-08-14T17:45:38.920Z,98810.22
2022-08-14T17:49:14.228Z,98821.06
2022-08-14T17:51:12.384Z,98818.03
2022-08-14T17:53:53.382Z,98818.50
2022-08-14T17:56:31.450Z,98816.50
2022-08-14T17:59:06.880Z,98813.72
2022-08-14T18:01:40.763Z,98817.78
2022-08-14T18:04:27.964Z,98820.16
2022-08-14T18:07:16.301Z,98812.97
2022-08-14T18:09:56.138Z,98819.63
2022-08-14T18:12:32.368Z,98812.72
2022-08-14T18:15:06.783Z,98817.50
2022-08-14T18:17:53.036Z,98817.38
2022-08-14T18:21:40.211Z,98814.53
2022-08-14T18:23:13.111Z,98819.88
2022-08-14T18:25:47.193Z,98813.72
2022-08-14T18:28:48.104Z,98814.66
2022-08-14T18:31:22.946Z,98814.50
2022-08-14T18:33:55.396Z,98814.38
2022-08-14T18:36:48.696Z,98814.19
2022-08-14T18:39:32.704Z,98809.97
2022-08-14T18:42:23.793Z,98816.66
2022-08-14T18:44:50.855Z,98821.19
2022-08-14T18:47:20.414Z,98819.19
2022-08-14T18:49:52.879Z,98821.13
2022-08-14T18:52:29.661Z,98825.06
2022-08-14T18:54:59.726Z,98825.81
2022-08-14T18:57:27.178Z,98824.34
2022-08-14T19:00:32.427Z,98822.19
2022-08-14T19:03:01.563Z,98823.50
2022-08-14T19:05:37.584Z,98824.06
2022-08-14T19:08:17.808Z,98825.47
2022-08-14T19:10:51.399Z,98820.53
2022-08-14T19:13:48.104Z,98821.41
2022-08-14T19:16:17.154Z,98820.47
2022-08-14T19:18:53.983Z,98825.25
2022-08-14T19:21:56.266Z,98828.34
2022-08-14T19:24:44.037Z,98826.00
2022-08-14T19:27:24.295Z,98828.94
2022-08-14T19:30:20.098Z,98817.84
2022-08-14T19:32:50.951Z,98824.09
2022-08-14T19:35:24.860Z,98823.16
2022-08-14T19:38:33.054Z,98826.59
2022-08-14T19:41:01.607Z,98820.00
2022-08-14T19:43:56.046Z,98824.47
2022-08-14T19:46:39.528Z,98827.31
2022-08-14T19:49:02.818Z,98816.13
2022-08-14T19:51:32.632Z,98816.03
2022-08-14T19:54:13.440Z,98813.19
2022-08-14T19:56:45.952Z,98810.97
2022-08-14T19:59:18.257Z,98816.25
2022-08-14T20:01:49.673Z,98816.25
2022-08-14T20:04:45.881Z,98817.22
2022-08-14T20:07:11.610Z,98812.63
2022-08-14T20:11:12.681Z,98816.84
2022-08-14T20:12:35.424Z,98813.28
2022-08-14T20:15:08.727Z,98813.50
2022-08-14T20:17:40.312Z,98813.16
2022-08-14T20:20:21.071Z,98814.09
2022-08-14T20:22:57.705Z,98813.06
2022-08-14T20:25:36.197Z,98809.41
2022-08-14T20:28:29.812Z,98803.84
2022-08-14T20:31:17.863Z,98812.69
2022-08-14T20:34:03.552Z,98812.78
2022-08-14T20:36:30.069Z,98812.78
2022-08-14T20:38:58.016Z,98813.47
2022-08-14T20:41:25.322Z,98812.78
2022-08-14T20:44:10.277Z,98815.09
2022-08-14T20:46:39.401Z,98810.41
2022-08-14T20:49:16.149Z,98811.91
2022-08-14T20:51:58.613Z,98815.06
2022-08-14T20:54:34.409Z,98809.88
2022-08-14T20:57:17.700Z,98808.31
2022-08-14T20:59:50.359Z,98807.88
2022-08-14T21:02:34.591Z,98806.06
2022-08-14T21:05:16.346Z,98803.75
2022-08-14T21:07:44.497Z,98810.19
2022-08-14T21:10:35.235Z,98804.88
2022-08-14T21:14:08.542Z,98801.94
2022-08-14T21:15:57.415Z,98799.47
2022-08-14T21:18:31.658Z,98790.97
2022-08-14T21:21:06.808Z,98792.84
2022-08-14T21:23:54.930Z,98791.44
2022-08-14T21:26:51.371Z,98798.75
2022-08-14T21:29:11.358Z,98800.84
2022-08-14T21:31:40.189Z,98795.06
2022-08-14T21:34:31.131Z,98809.69
2022-08-14T21:36:54.587Z,98804.50
2022-08-14T21:39:24.885Z,98802.47
2022-08-14T21:41:58.880Z,98799.97
2022-08-14T21:44:42.728Z,98794.19
2022-08-14T21:47:11.807Z,98797.13
2022-08-14T21:49:40.111Z,98790.09
2022-08-14T21:52:49.723Z,98795.94
2022-08-14T21:55:13.167Z,98798.88
2022-08-14T21:58:45.916Z,98792.88
2022-08-14T22:00:39.663Z,98789.56
2022-08-14T22:03:13.628Z,98786.50
2022-08-14T22:05:41.941Z,98784.22
2022-08-14T22:08:11.924Z,98776.56
2022-08-14T22:10:42.495Z,98777.00
2022-08-14T22:13:11.952Z,98773.09
2022-08-14T22:15:43.819Z,98766.50
2022-08-14T22:18:20.177Z,98758.84
2022-08-14T22:20:48.394Z,98763.88
2022-08-14T22:23:23.057Z,98755.41
2022-08-14T22:25:51.159Z,98755.00
2022-08-14T22:28:25.271Z,98754.06
2022-08-14T22:30:55.086Z,98751.59
2022-08-14T22:33:30.952Z,98752.25
2022-08-14T22:35:59.295Z,98759.78
2022-08-14T22:38:37.974Z,98760.22
2022-08-14T22:41:26.649Z,98762.78
2022-08-14T22:43:57.323Z,98763.66
2022-08-14T22:46:26.302Z,98759.16
2022-08-14T22:48:53.837Z,98758.16
2022-08-14T22:51:23.359Z,98748.69
2022-08-14T22:53:53.779Z,98750.63
2022-08-14T22:56:29.226Z,98754.22
2022-08-14T22:59:02.075Z,98750.53
2022-08-14T23:01:56.313Z,98756.84
2022-08-14T23:04:35.841Z,98755.22
2022-08-14T23:07:14.366Z,98756.13
2022-08-14T23:09:57.747Z,98749.13
2022-08-14T23:12:45.851Z,98744.16
2022-08-14T23:15:17.339Z,98746.66
2022-08-14T23:17:45.785Z,98740.84
2022-08-14T23:20:19.997Z,98737.94
2022-08-14T23:22:52.314Z,98743.13
2022-08-14T23:25:57.414Z,98729.63
2022-08-14T23:28:34.641Z,98730.47
2022-08-14T23:30:55.361Z,98730.03
2022-08-14T23:33:22.178Z,98728.19
2022-08-14T23:35:59.190Z,98732.53
2022-08-14T23:38:31.059Z,98722.56
2022-08-14T23:40:58.821Z,98719.66
2022-08-14T23:43:31.382Z,98726.69
2022-08-14T23:45:58.998Z,98714.03
2022-08-14T23:48:28.552Z,98714.63
2022-08-14T23:50:56.337Z,98708.78
2022-08-14T23:53:28.455Z,98707.72
2022-08-14T23:56:39.667Z,98695.28
2022-08-14T23:59:10.335Z,98700.41
